createdAt,value
2023-04-17T00:00:31.400Z,6.74
2023-04-17T00:01:33.397Z,6.74
2023-04-17T00:02:39.808Z,6.74
2023-04-17T00:03:42.088Z,6.74
2023-04-17T00:04:45.584Z,6.73
2023-04-17T00:05:49.029Z,6.74
2023-04-17T00:06:53.926Z,6.74
2023-04-17T00:07:57.111Z,6.74
2023-04-17T00:08:59.900Z,6.72
2023-04-17T00:10:01.935Z,6.73
2023-04-17T00:11:08.495Z,6.72
2023-04-17T00:12:10.820Z,6.71
2023-04-17T00:13:13.605Z,6.70
2023-04-17T00:14:15.501Z,6.70
2023-04-17T00:15:18.358Z,6.69
2023-04-17T00:16:20.222Z,6.65
2023-04-17T00:17:23.094Z,6.62
2023-04-17T00:18:24.909Z,6.58
2023-04-17T00:19:27.883Z,6.56
2023-04-17T00:20:30.475Z,6.54
2023-04-17T00:21:34.645Z,6.54
2023-04-17T00:22:37.086Z,6.51
2023-04-17T00:23:39.935Z,6.49
2023-04-17T00:24:41.848Z,6.46
2023-04-17T00:25:44.650Z,6.44
2023-04-17T00:26:46.517Z,6.39
2023-04-17T00:27:50.317Z,6.37
2023-04-17T00:28:52.158Z,6.31
2023-04-17T00:29:55.022Z,6.24
2023-04-17T00:30:58.252Z,6.17
2023-04-17T00:32:01.349Z,6.07
2023-04-17T00:33:03.366Z,5.95
2023-04-17T00:34:06.200Z,5.84
2023-04-17T00:35:08.740Z,5.75
2023-04-17T00:36:13.514Z,5.64
2023-04-17T00:37:16.725Z,5.55
2023-04-17T00:38:19.607Z,5.47
2023-04-17T00:39:21.529Z,5.38
2023-04-17T00:40:24.416Z,5.28
2023-04-17T00:41:27.427Z,5.19
2023-04-17T00:42:30.227Z,5.10
2023-04-17T00:43:32.173Z,5.02
2023-04-17T00:44:35.035Z,4.97
2023-04-17T00:45:37.085Z,4.94
2023-04-17T00:46:41.008Z,4.87
2023-04-17T00:47:42.952Z,4.81
2023-04-17T00:48:46.190Z,4.72
2023-04-17T00:49:48.257Z,4.66
2023-04-17T00:50:51.945Z,4.61
2023-04-17T00:51:54.141Z,4.60
2023-04-17T00:52:59.480Z,4.53
2023-04-17T00:54:01.643Z,4.47
2023-04-17T00:55:06.632Z,4.40
2023-04-17T00:56:08.546Z,4.33
2023-04-17T00:57:11.874Z,4.29
2023-04-17T00:58:13.965Z,4.25
2023-04-17T00:59:18.654Z,4.20
2023-04-17T01:00:22.053Z,4.15
2023-04-17T01:01:24.892Z,4.13
2023-04-17T01:02:27.222Z,4.09
2023-04-17T01:03:33.083Z,4.02
2023-04-17T01:04:35.914Z,3.94
2023-04-17T01:05:39.052Z,3.88
2023-04-17T01:06:41.858Z,3.80
2023-04-17T01:07:45.073Z,3.73
2023-04-17T01:08:49.608Z,3.68
2023-04-17T01:09:53.216Z,3.64
2023-04-17T01:10:55.584Z,3.61
2023-04-17T01:12:16.951Z,3.59
2023-04-17T01:13:19.756Z,3.55
2023-04-17T01:14:21.902Z,3.49
2023-04-17T01:15:25.034Z,3.47
2023-04-17T01:16:27.589Z,3.43
2023-04-17T01:17:30.780Z,3.37
2023-04-17T01:18:32.675Z,3.35
2023-04-17T01:19:35.468Z,3.31
2023-04-17T01:20:37.759Z,3.29
2023-04-17T01:21:40.553Z,3.27
2023-04-17T01:22:42.453Z,3.23
2023-04-17T01:23:48.551Z,3.20
2023-04-17T01:24:51.765Z,3.19
2023-04-17T01:25:54.666Z,3.19
2023-04-17T01:26:58.691Z,3.18
2023-04-17T01:28:01.626Z,3.14
2023-04-17T01:29:04.778Z,3.17
2023-04-17T01:30:09.320Z,3.17
2023-04-17T01:31:18.501Z,3.16
2023-04-17T01:32:21.649Z,3.15
2023-04-17T01:33:24.320Z,3.12
2023-04-17T01:34:27.166Z,3.06
2023-04-17T01:35:29.070Z,3.02
2023-04-17T01:36:32.420Z,2.95
2023-04-17T01:37:34.412Z,2.89
2023-04-17T01:38:37.214Z,2.83
2023-04-17T01:39:39.065Z,2.81
2023-04-17T01:40:43.183Z,2.77
2023-04-17T01:41:45.025Z,2.77
2023-04-17T01:42:48.428Z,2.75
2023-04-17T01:43:50.412Z,2.76
2023-04-17T01:44:53.820Z,2.76
2023-04-17T01:45:56.161Z,2.75
2023-04-17T01:46:58.992Z,2.75
2023-04-17T01:48:01.343Z,2.77
2023-04-17T01:49:04.242Z,2.78
2023-04-17T01:50:09.045Z,2.82
2023-04-17T01:51:11.863Z,2.83
2023-04-17T01:52:13.997Z,2.83
2023-04-17T01:53:16.814Z,2.85
2023-04-17T01:54:18.695Z,2.87
2023-04-17T01:55:21.951Z,2.94
2023-04-17T01:56:26.083Z,3.01
2023-04-17T01:57:29.055Z,3.07
2023-04-17T01:58:31.394Z,3.14
2023-04-17T01:59:34.663Z,3.22
2023-04-17T02:00:36.493Z,3.29
2023-04-17T02:01:40.102Z,3.34
2023-04-17T02:02:42.126Z,3.39
2023-04-17T02:03:45.246Z,3.45
2023-04-17T02:04:47.226Z,3.51
2023-04-17T02:05:50.109Z,3.56
2023-04-17T02:06:52.284Z,3.59
2023-04-17T02:07:55.278Z,3.61
2023-04-17T02:08:57.115Z,3.62
2023-04-17T02:09:59.897Z,3.62
2023-04-17T02:11:02.636Z,3.65
2023-04-17T02:12:07.642Z,3.64
2023-04-17T02:13:10.389Z,3.63
2023-04-17T02:14:16.642Z,3.61
2023-04-17T02:15:18.539Z,3.58
2023-04-17T02:16:22.535Z,3.53
2023-04-17T02:17:24.623Z,3.51
2023-04-17T02:18:27.765Z,3.51
2023-04-17T02:19:29.549Z,3.51
2023-04-17T02:20:32.488Z,3.52
2023-04-17T02:21:34.295Z,3.51
2023-04-17T02:22:37.116Z,3.49
2023-04-17T02:23:39.019Z,3.45
2023-04-17T02:24:41.797Z,3.38
2023-04-17T02:25:43.621Z,3.34
2023-04-17T02:26:46.694Z,3.31
2023-04-17T02:27:49.830Z,3.28
2023-04-17T02:28:52.649Z,3.24
2023-04-17T02:29:54.548Z,3.18
2023-04-17T02:30:57.714Z,3.14
2023-04-17T02:31:59.567Z,3.10
2023-04-17T02:33:03.231Z,3.08
2023-04-17T02:34:06.033Z,3.05
2023-04-17T02:35:09.842Z,3.01
2023-04-17T02:36:11.847Z,2.98
2023-04-17T02:37:17.441Z,2.95
2023-04-17T02:38:19.304Z,2.93
2023-04-17T02:39:22.241Z,2.91
2023-04-17T02:40:24.344Z,2.92
2023-04-17T02:41:32.678Z,2.90
2023-04-17T02:42:34.973Z,2.88
2023-04-17T02:43:40.472Z,2.86
2023-04-17T02:44:42.365Z,2.85
2023-04-17T02:45:45.524Z,2.81
2023-04-17T02:46:48.248Z,2.77
2023-04-17T02:47:51.548Z,2.77
2023-04-17T02:48:54.771Z,2.72
2023-04-17T02:49:56.880Z,2.64
2023-04-17T02:50:59.794Z,2.61
2023-04-17T02:52:02.055Z,2.58
2023-04-17T02:53:05.186Z,2.52
2023-04-17T02:54:07.131Z,2.46
2023-04-17T02:55:10.746Z,2.42
2023-04-17T02:56:14.262Z,2.35
2023-04-17T02:57:17.158Z,2.30
2023-04-17T02:58:19.026Z,2.24
2023-04-17T02:59:23.333Z,2.19
2023-04-17T03:00:26.352Z,2.16
2023-04-17T03:01:29.942Z,2.12
2023-04-17T03:02:32.061Z,2.11
2023-04-17T03:03:38.753Z,2.11
2023-04-17T03:04:44.569Z,2.09
2023-04-17T03:05:47.748Z,2.07
2023-04-17T03:06:49.625Z,2.01
2023-04-17T03:07:53.091Z,1.97
2023-04-17T03:08:54.932Z,1.96
2023-04-17T03:09:58.970Z,1.94
2023-04-17T03:11:01.202Z,1.93
2023-04-17T03:12:05.755Z,1.92
2023-04-17T03:13:07.576Z,1.93
2023-04-17T03:14:10.784Z,1.93
2023-04-17T03:15:14.058Z,1.95
2023-04-17T03:16:16.969Z,1.95
2023-04-17T03:17:21.138Z,1.97
2023-04-17T03:18:24.345Z,1.97
2023-04-17T03:19:26.195Z,1.96
2023-04-17T03:20:29.099Z,1.99
2023-04-17T03:21:31.804Z,2.02
2023-04-17T03:22:35.436Z,2.06
2023-04-17T03:23:37.986Z,2.08
2023-04-17T03:24:42.563Z,2.08
2023-04-17T03:25:45.329Z,2.14
2023-04-17T03:26:49.029Z,2.16
2023-04-17T03:27:54.178Z,2.17
2023-04-17T03:29:00.654Z,2.19
2023-04-17T03:30:02.681Z,2.21
2023-04-17T03:31:08.508Z,2.21
2023-04-17T03:32:11.057Z,2.24
2023-04-17T03:33:13.953Z,2.26
2023-04-17T03:34:16.492Z,2.30
2023-04-17T03:35:19.667Z,2.32
2023-04-17T03:36:22.507Z,2.32
2023-04-17T03:37:24.460Z,2.36
2023-04-17T03:38:27.287Z,2.38
2023-04-17T03:39:29.812Z,2.43
2023-04-17T03:40:33.787Z,2.46
2023-04-17T03:41:35.719Z,2.49
2023-04-17T03:42:39.062Z,2.54
2023-04-17T03:43:41.127Z,2.58
2023-04-17T03:44:46.652Z,2.62
2023-04-17T03:45:48.844Z,2.63
2023-04-17T03:46:53.692Z,2.67
2023-04-17T03:47:56.427Z,2.71
2023-04-17T03:48:59.656Z,2.75
2023-04-17T03:50:02.259Z,2.78
2023-04-17T03:51:10.423Z,2.82
2023-04-17T03:52:13.734Z,2.86
2023-04-17T03:53:17.276Z,2.93
2023-04-17T03:54:19.689Z,2.99
2023-04-17T03:55:25.051Z,3.05
2023-04-17T03:56:27.756Z,3.11
2023-04-17T03:57:30.678Z,3.18
2023-04-17T03:58:33.110Z,3.25
2023-04-17T03:59:36.111Z,3.32
2023-04-17T04:00:38.619Z,3.36
2023-04-17T04:01:46.879Z,3.44
2023-04-17T04:02:54.787Z,3.51
2023-04-17T04:04:03.559Z,3.57
2023-04-17T04:05:07.041Z,3.64
2023-04-17T04:06:10.152Z,3.69
2023-04-17T04:07:11.989Z,3.77
2023-04-17T04:08:15.402Z,3.84
2023-04-17T04:09:22.146Z,3.90
2023-04-17T04:10:25.211Z,3.98
2023-04-17T04:11:27.657Z,4.07
2023-04-17T04:12:31.173Z,4.14
2023-04-17T04:13:34.036Z,4.25
2023-04-17T04:14:41.748Z,4.34
2023-04-17T04:15:44.881Z,4.44
2023-04-17T04:16:52.918Z,4.52
2023-04-17T04:17:57.097Z,4.59
2023-04-17T04:19:00.272Z,4.68
2023-04-17T04:20:02.378Z,4.79
2023-04-17T04:21:05.895Z,4.86
2023-04-17T04:22:13.696Z,4.94
2023-04-17T04:23:27.948Z,5.00
2023-04-17T04:24:30.438Z,5.06
2023-04-17T04:25:34.297Z,5.11
2023-04-17T04:27:04.723Z,5.15
2023-04-17T04:28:10.441Z,5.22
2023-04-17T04:29:13.859Z,5.28
2023-04-17T04:30:38.849Z,5.33
2023-04-17T04:31:51.091Z,5.40
2023-04-17T04:33:01.103Z,5.46
2023-04-17T04:34:04.132Z,5.53
2023-04-17T04:35:07.538Z,5.58
2023-04-17T04:36:14.013Z,5.63
2023-04-17T04:37:22.029Z,5.68
2023-04-17T04:38:30.032Z,5.74
2023-04-17T04:39:34.738Z,5.79
2023-04-17T04:40:38.381Z,5.83
2023-04-17T04:41:46.557Z,5.87
2023-04-17T04:42:51.160Z,5.93
2023-04-17T04:43:57.633Z,6.00
2023-04-17T04:45:00.652Z,6.07
2023-04-17T04:46:05.389Z,6.13
2023-04-17T04:47:12.237Z,6.19
2023-04-17T04:48:15.461Z,6.25
2023-04-17T04:49:18.268Z,6.33
2023-04-17T04:50:20.635Z,6.40
2023-04-17T04:51:24.105Z,6.47
2023-04-17T04:52:26.582Z,6.53
2023-04-17T04:53:33.197Z,6.59
2023-04-17T04:54:35.254Z,6.67
2023-04-17T04:55:40.331Z,6.73
2023-04-17T04:56:44.941Z,6.80
2023-04-17T04:57:53.312Z,6.88
2023-04-17T04:58:56.512Z,6.96
2023-04-17T04:59:59.725Z,7.06
2023-04-17T05:01:07.855Z,7.16
2023-04-17T05:02:19.453Z,7.24
2023-04-17T05:03:25.102Z,7.32
2023-04-17T05:04:30.731Z,7.43
2023-04-17T05:05:36.058Z,7.53
2023-04-17T05:06:42.024Z,7.61
2023-04-17T05:07:44.424Z,7.70
2023-04-17T05:08:51.499Z,7.81
2023-04-17T05:09:54.136Z,7.95
2023-04-17T05:10:57.777Z,8.10
2023-04-17T05:12:00.027Z,8.26
2023-04-17T05:13:03.692Z,8.40
2023-04-17T05:14:06.219Z,8.55
2023-04-17T05:15:13.034Z,8.69
2023-04-17T05:16:15.280Z,8.80
2023-04-17T05:17:18.743Z,8.91
2023-04-17T05:18:21.814Z,8.99
2023-04-17T05:19:26.711Z,9.04
2023-04-17T05:20:36.212Z,9.15
2023-04-17T05:21:39.914Z,9.22
2023-04-17T05:22:44.189Z,9.25
2023-04-17T05:23:48.101Z,9.27
2023-04-17T05:24:51.271Z,9.29
2023-04-17T05:25:53.427Z,9.30
2023-04-17T05:26:57.196Z,9.32
2023-04-17T05:27:59.407Z,9.35
2023-04-17T05:29:03.545Z,9.38
2023-04-17T05:30:10.358Z,9.41
2023-04-17T05:31:13.772Z,9.45
2023-04-17T05:32:17.682Z,9.46
2023-04-17T05:33:29.501Z,9.49
2023-04-17T05:34:37.259Z,9.52
2023-04-17T05:35:41.289Z,9.54
2023-04-17T05:36:43.941Z,9.57
2023-04-17T05:37:46.935Z,9.63
2023-04-17T05:38:50.018Z,9.69
2023-04-17T05:39:52.793Z,9.76
2023-04-17T05:40:56.390Z,9.84
2023-04-17T05:41:58.535Z,10.04
2023-04-17T05:43:08.337Z,10.35
2023-04-17T05:44:12.462Z,10.62
2023-04-17T05:45:14.986Z,10.83
2023-04-17T05:46:18.429Z,11.04
2023-04-17T05:47:20.806Z,11.25
2023-04-17T05:48:24.491Z,11.54
2023-04-17T05:49:27.745Z,11.73
2023-04-17T05:50:31.992Z,11.87
2023-04-17T05:51:33.899Z,12.08
2023-04-17T05:52:39.150Z,12.35
2023-04-17T05:53:44.775Z,12.61
2023-04-17T05:54:46.567Z,12.88
2023-04-17T05:55:49.623Z,13.16
2023-04-17T05:56:51.969Z,13.43
2023-04-17T05:57:58.059Z,13.70
2023-04-17T05:59:00.855Z,13.96
2023-04-17T06:00:10.498Z,14.15
2023-04-17T06:01:20.617Z,14.23
2023-04-17T06:02:26.939Z,14.21
2023-04-17T06:03:30.179Z,14.19
2023-04-17T06:04:43.209Z,14.19
2023-04-17T06:05:47.275Z,14.13
2023-04-17T06:06:50.293Z,14.04
2023-04-17T06:07:52.424Z,13.92
2023-04-17T06:08:57.867Z,13.74
2023-04-17T06:10:02.790Z,13.61
2023-04-17T06:11:06.680Z,13.52
2023-04-17T06:12:15.761Z,13.47
2023-04-17T06:13:19.981Z,13.39
2023-04-17T06:14:24.559Z,13.36
2023-04-17T06:15:28.004Z,13.39
2023-04-17T06:16:29.918Z,13.40
2023-04-17T06:17:32.736Z,13.46
2023-04-17T06:18:35.226Z,13.56
2023-04-17T06:19:38.073Z,13.70
2023-04-17T06:20:42.032Z,13.95
2023-04-17T06:21:46.377Z,14.14
2023-04-17T06:22:49.033Z,14.25
2023-04-17T06:23:52.216Z,14.29
2023-04-17T06:24:54.102Z,14.43
2023-04-17T06:25:57.096Z,14.53
2023-04-17T06:26:58.928Z,14.63
2023-04-17T06:28:01.803Z,14.72
2023-04-17T06:29:06.012Z,14.77
2023-04-17T06:30:10.052Z,14.80
2023-04-17T06:31:23.898Z,14.83
2023-04-17T06:32:28.607Z,14.80
2023-04-17T06:33:30.544Z,14.77
2023-04-17T06:34:33.901Z,14.75
2023-04-17T06:35:36.584Z,14.68
2023-04-17T06:36:57.534Z,14.52
2023-04-17T06:37:59.424Z,14.41
2023-04-17T06:39:02.489Z,14.27
2023-04-17T06:40:07.355Z,14.10
2023-04-17T06:41:10.680Z,13.91
2023-04-17T06:42:16.413Z,13.74
2023-04-17T06:43:18.252Z,13.62
2023-04-17T06:44:21.137Z,13.52
2023-04-17T06:45:23.261Z,13.44
2023-04-17T06:46:26.114Z,13.37
2023-04-17T06:47:30.652Z,13.33
2023-04-17T06:48:32.560Z,13.38
2023-04-17T06:49:36.831Z,13.49
2023-04-17T06:50:38.794Z,13.73
2023-04-17T06:51:45.772Z,14.06
2023-04-17T06:52:48.948Z,14.43
2023-04-17T06:53:52.451Z,14.69
2023-04-17T06:54:54.626Z,14.79
2023-04-17T06:55:57.793Z,14.83
2023-04-17T06:57:00.974Z,14.82
2023-04-17T06:58:04.146Z,14.98
2023-04-17T06:59:06.901Z,15.08
2023-04-17T07:00:10.049Z,15.24
2023-04-17T07:01:13.349Z,15.44
2023-04-17T07:02:15.400Z,15.67
2023-04-17T07:03:18.396Z,15.84
2023-04-17T07:04:21.506Z,16.01
2023-04-17T07:05:24.384Z,16.22
2023-04-17T07:06:26.737Z,16.41
2023-04-17T07:07:30.754Z,16.63
2023-04-17T07:08:34.950Z,16.86
2023-04-17T07:09:37.169Z,17.08
2023-04-17T07:10:39.940Z,17.23
2023-04-17T07:11:41.828Z,17.38
2023-04-17T07:12:44.649Z,17.53
2023-04-17T07:13:46.458Z,17.54
2023-04-17T07:14:49.208Z,17.41
2023-04-17T07:15:53.304Z,17.27
2023-04-17T07:16:55.296Z,17.13
2023-04-17T07:17:58.219Z,17.07
2023-04-17T07:19:01.525Z,17.02
2023-04-17T07:20:05.281Z,16.94
2023-04-17T07:21:08.058Z,16.77
2023-04-17T07:22:10.229Z,16.55
2023-04-17T07:23:12.990Z,16.34
2023-04-17T07:24:17.102Z,16.21
2023-04-17T07:25:19.872Z,16.08
2023-04-17T07:26:22.802Z,15.97
2023-04-17T07:27:24.718Z,15.90
2023-04-17T07:28:27.532Z,15.85
2023-04-17T07:29:30.353Z,15.77
2023-04-17T07:30:32.162Z,15.68
2023-04-17T07:31:35.328Z,15.61
2023-04-17T07:32:37.333Z,15.55
2023-04-17T07:33:40.639Z,15.47
2023-04-17T07:34:42.965Z,15.40
2023-04-17T07:35:45.804Z,15.38
2023-04-17T07:36:49.697Z,15.41
2023-04-17T07:37:51.935Z,15.43
2023-04-17T07:38:54.690Z,15.43
2023-04-17T07:39:58.817Z,15.43
2023-04-17T07:41:00.846Z,15.42
2023-04-17T07:42:06.486Z,15.41
2023-04-17T07:43:09.348Z,15.37
2023-04-17T07:44:11.328Z,15.33
2023-04-17T07:45:14.263Z,15.32
2023-04-17T07:46:17.141Z,15.28
2023-04-17T07:47:20.079Z,15.30
2023-04-17T07:48:22.923Z,15.35
2023-04-17T07:49:25.850Z,15.38
2023-04-17T07:50:29.036Z,15.40
2023-04-17T07:51:32.837Z,15.38
2023-04-17T07:52:34.619Z,15.34
2023-04-17T07:53:38.655Z,15.27
2023-04-17T07:54:40.458Z,15.18
2023-04-17T07:55:44.611Z,15.13
2023-04-17T07:56:46.825Z,15.09
2023-04-17T07:57:51.594Z,15.08
2023-04-17T07:58:54.418Z,15.09
2023-04-17T07:59:57.262Z,15.09
2023-04-17T08:01:00.032Z,15.10
2023-04-17T08:02:02.925Z,15.11
2023-04-17T08:03:06.203Z,15.11
2023-04-17T08:04:09.586Z,15.15
2023-04-17T08:05:12.019Z,15.19
2023-04-17T08:06:15.499Z,15.30
2023-04-17T08:07:18.318Z,15.42
2023-04-17T08:08:22.819Z,15.49
2023-04-17T08:09:25.953Z,15.53
2023-04-17T08:10:29.206Z,15.51
2023-04-17T08:11:42.752Z,15.50
2023-04-17T08:12:52.859Z,15.49
2023-04-17T08:13:56.086Z,15.45
2023-04-17T08:14:59.266Z,15.40
2023-04-17T08:16:02.525Z,15.35
2023-04-17T08:17:04.626Z,15.28
2023-04-17T08:18:07.711Z,15.21
2023-04-17T08:19:09.724Z,15.20
2023-04-17T08:20:12.884Z,15.24
2023-04-17T08:21:14.808Z,15.27
2023-04-17T08:22:19.621Z,15.28
2023-04-17T08:23:22.547Z,15.25
2023-04-17T08:24:24.444Z,15.25
2023-04-17T08:25:27.380Z,15.22
2023-04-17T08:26:29.358Z,15.19
2023-04-17T08:27:33.462Z,15.15
2023-04-17T08:28:36.688Z,15.11
2023-04-17T08:29:39.759Z,15.06
2023-04-17T08:30:42.676Z,15.07
2023-04-17T08:31:44.518Z,15.13
2023-04-17T08:32:49.055Z,15.26
2023-04-17T08:33:59.488Z,15.55
2023-04-17T08:35:11.326Z,15.94
2023-04-17T08:36:14.225Z,16.20
2023-04-17T08:37:17.050Z,16.29
2023-04-17T08:38:19.908Z,16.21
2023-04-17T08:39:21.704Z,16.37
2023-04-17T08:40:26.187Z,16.59
2023-04-17T08:41:35.762Z,16.84
2023-04-17T08:42:43.456Z,17.02
2023-04-17T08:43:49.260Z,17.30
2023-04-17T08:44:52.163Z,17.59
2023-04-17T08:45:55.596Z,17.68
2023-04-17T08:46:58.288Z,17.62
2023-04-17T08:48:01.215Z,17.55
2023-04-17T08:49:03.298Z,17.49
2023-04-17T08:50:09.602Z,17.58
2023-04-17T08:51:11.483Z,17.65
2023-04-17T08:52:14.859Z,17.73
2023-04-17T08:53:18.190Z,17.65
2023-04-17T08:54:22.011Z,17.56
2023-04-17T08:55:28.965Z,17.44
2023-04-17T08:56:31.018Z,17.30
2023-04-17T08:57:34.069Z,17.20
2023-04-17T08:58:38.348Z,17.09
2023-04-17T08:59:43.043Z,16.96
2023-04-17T09:00:46.473Z,16.87
2023-04-17T09:02:01.368Z,16.85
2023-04-17T09:03:05.512Z,16.82
2023-04-17T09:04:08.944Z,16.82
2023-04-17T09:05:19.411Z,16.85
2023-04-17T09:06:22.211Z,17.03
2023-04-17T09:07:29.632Z,17.14
2023-04-17T09:08:32.489Z,17.17
2023-04-17T09:09:48.266Z,17.31
2023-04-17T09:10:52.151Z,17.43
2023-04-17T09:12:10.372Z,17.66
2023-04-17T09:13:15.125Z,17.73
2023-04-17T09:14:32.168Z,17.69
2023-04-17T09:15:35.258Z,17.60
2023-04-17T09:16:53.070Z,17.38
2023-04-17T09:17:56.312Z,17.26
2023-04-17T09:19:06.738Z,17.15
2023-04-17T09:20:12.492Z,17.06
2023-04-17T09:21:18.508Z,17.01
2023-04-17T09:22:21.975Z,16.92
2023-04-17T09:23:24.888Z,16.84
2023-04-17T09:24:34.395Z,16.89
2023-04-17T09:25:37.534Z,17.07
2023-04-17T09:26:40.307Z,17.19
2023-04-17T09:27:42.270Z,17.37
2023-04-17T09:29:07.586Z,17.65
2023-04-17T09:30:13.318Z,17.87
2023-04-17T09:31:28.504Z,18.03
2023-04-17T09:32:31.685Z,18.24
2023-04-17T09:33:34.546Z,18.43
2023-04-17T09:34:40.683Z,18.56
2023-04-17T09:35:43.680Z,18.50
2023-04-17T09:36:45.543Z,18.36
2023-04-17T09:37:49.877Z,18.23
2023-04-17T09:38:52.695Z,18.15
2023-04-17T09:39:59.425Z,18.11
2023-04-17T09:41:02.241Z,17.98
2023-04-17T09:42:06.169Z,18.01
2023-04-17T09:43:10.716Z,18.05
2023-04-17T09:44:25.591Z,18.16
2023-04-17T09:45:36.005Z,18.20
2023-04-17T09:46:38.930Z,18.24
2023-04-17T09:47:44.724Z,18.29
2023-04-17T09:48:47.177Z,18.29
2023-04-17T09:49:52.592Z,18.18
2023-04-17T09:50:56.255Z,18.08
2023-04-17T09:51:58.720Z,18.04
2023-04-17T09:53:02.475Z,17.97
2023-04-17T09:54:05.588Z,17.86
2023-04-17T09:55:10.480Z,17.68
2023-04-17T09:56:13.564Z,17.49
2023-04-17T09:57:16.770Z,17.32
2023-04-17T09:58:19.729Z,17.15
2023-04-17T09:59:23.516Z,17.11
2023-04-17T10:00:28.131Z,17.16
2023-04-17T10:01:32.566Z,17.21
2023-04-17T10:02:35.680Z,17.29
2023-04-17T10:03:38.965Z,17.42
2023-04-17T10:04:41.446Z,17.67
2023-04-17T10:05:44.271Z,17.87
2023-04-17T10:06:46.440Z,18.09
2023-04-17T10:07:49.213Z,18.16
2023-04-17T10:08:51.752Z,18.16
2023-04-17T10:09:54.581Z,18.10
2023-04-17T10:11:04.043Z,17.98
2023-04-17T10:12:07.939Z,17.88
2023-04-17T10:13:12.526Z,17.76
2023-04-17T10:14:20.651Z,17.70
2023-04-17T10:15:24.590Z,17.62
2023-04-17T10:16:35.775Z,17.47
2023-04-17T10:17:38.688Z,17.41
2023-04-17T10:18:41.680Z,17.36
2023-04-17T10:19:45.220Z,17.32
2023-04-17T10:20:48.475Z,17.21
2023-04-17T10:22:25.024Z,17.05
2023-04-17T10:23:33.078Z,16.83
2023-04-17T10:24:35.055Z,16.70
2023-04-17T10:25:37.921Z,16.65
2023-04-17T10:26:39.775Z,16.59
2023-04-17T10:27:47.210Z,16.55
2023-04-17T10:28:49.767Z,16.60
2023-04-17T10:29:56.129Z,16.63
2023-04-17T10:31:01.529Z,16.71
2023-04-17T10:32:26.323Z,16.88
2023-04-17T10:33:29.318Z,17.07
2023-04-17T10:34:35.186Z,17.21
2023-04-17T10:35:38.087Z,17.31
2023-04-17T10:36:50.676Z,17.40
2023-04-17T10:38:03.835Z,17.46
2023-04-17T10:39:14.087Z,17.50
2023-04-17T10:40:21.142Z,17.51
2023-04-17T10:41:24.904Z,17.47
2023-04-17T10:42:29.337Z,17.36
2023-04-17T10:43:32.690Z,17.20
2023-04-17T10:44:34.576Z,17.05
2023-04-17T10:45:54.129Z,16.84
2023-04-17T10:46:57.025Z,16.64
2023-04-17T10:48:00.451Z,16.44
2023-04-17T10:49:05.296Z,16.28
2023-04-17T10:50:10.073Z,16.11
2023-04-17T10:51:41.478Z,15.89
2023-04-17T10:52:45.075Z,15.68
2023-04-17T10:53:47.643Z,15.56
2023-04-17T10:55:08.909Z,15.39
2023-04-17T10:56:12.686Z,15.25
2023-04-17T10:57:15.918Z,15.11
2023-04-17T10:58:19.097Z,15.02
2023-04-17T10:59:23.441Z,14.89
2023-04-17T11:00:30.934Z,14.71
2023-04-17T11:01:40.423Z,14.50
2023-04-17T11:02:45.503Z,14.28
2023-04-17T11:03:49.795Z,14.08
2023-04-17T11:05:07.379Z,13.81
2023-04-17T11:06:09.346Z,13.64
2023-04-17T11:07:13.557Z,13.48
2023-04-17T11:08:15.551Z,13.33
2023-04-17T11:09:21.773Z,13.22
2023-04-17T11:10:24.007Z,13.10
2023-04-17T11:11:42.958Z,12.99
2023-04-17T11:12:49.879Z,12.82
2023-04-17T11:13:51.681Z,12.69
2023-04-17T11:14:54.473Z,12.55
2023-04-17T11:15:56.697Z,12.43
2023-04-17T11:16:59.532Z,12.27
2023-04-17T11:18:03.248Z,12.10
2023-04-17T11:19:06.640Z,11.97
2023-04-17T11:20:11.171Z,11.84
2023-04-17T11:21:13.605Z,11.75
2023-04-17T11:22:19.321Z,11.67
2023-04-17T11:23:22.150Z,11.63
2023-04-17T11:24:24.109Z,11.61
2023-04-17T11:25:30.169Z,11.58
2023-04-17T11:26:32.947Z,11.57
2023-04-17T11:27:34.785Z,11.57
2023-04-17T11:28:38.276Z,11.56
2023-04-17T11:29:40.030Z,11.52
2023-04-17T11:30:45.055Z,11.48
2023-04-17T11:31:48.164Z,11.47
2023-04-17T11:32:51.877Z,11.48
2023-04-17T11:33:54.822Z,11.54
2023-04-17T11:34:59.243Z,11.59
2023-04-17T11:36:02.344Z,11.62
2023-04-17T11:37:05.544Z,11.68
2023-04-17T11:38:11.377Z,11.72
2023-04-17T11:39:16.112Z,11.76
2023-04-17T11:40:23.996Z,11.81
2023-04-17T11:41:36.961Z,11.87
2023-04-17T11:42:44.649Z,11.92
2023-04-17T11:43:47.630Z,11.99
2023-04-17T11:44:49.768Z,12.09
2023-04-17T11:45:54.086Z,12.20
2023-04-17T11:46:58.280Z,12.29
2023-04-17T11:48:02.317Z,12.37
2023-04-17T11:49:05.197Z,12.40
2023-04-17T11:50:09.159Z,12.44
2023-04-17T11:51:13.474Z,12.47
2023-04-17T11:52:17.691Z,12.50
2023-04-17T11:53:20.874Z,12.46
2023-04-17T11:54:26.581Z,12.40
2023-04-17T11:55:31.275Z,12.34
2023-04-17T11:56:34.120Z,12.29
2023-04-17T11:57:41.394Z,12.22
2023-04-17T11:58:48.774Z,12.12
2023-04-17T11:59:50.567Z,12.03
2023-04-17T12:01:05.438Z,11.95
2023-04-17T12:02:09.245Z,11.88
2023-04-17T12:03:34.829Z,11.82
2023-04-17T12:04:38.249Z,11.75
2023-04-17T12:05:42.527Z,11.71
2023-04-17T12:06:45.322Z,11.67
2023-04-17T12:07:47.178Z,11.64
2023-04-17T12:08:51.282Z,11.61
2023-04-17T12:09:57.473Z,11.59
2023-04-17T12:11:00.323Z,11.56
2023-04-17T12:12:04.790Z,11.53
2023-04-17T12:13:08.077Z,11.52
2023-04-17T12:14:12.577Z,11.53
2023-04-17T12:15:14.776Z,11.52
2023-04-17T12:16:17.906Z,11.53
2023-04-17T12:17:21.668Z,11.51
2023-04-17T12:18:24.871Z,11.51
2023-04-17T12:19:29.941Z,11.51
2023-04-17T12:20:34.833Z,11.49
2023-04-17T12:21:38.948Z,11.49
2023-04-17T12:22:40.755Z,11.51
2023-04-17T12:23:44.081Z,11.56
2023-04-17T12:24:46.021Z,11.62
2023-04-17T12:25:48.787Z,11.68
2023-04-17T12:26:52.372Z,11.73
2023-04-17T12:27:56.008Z,11.81
2023-04-17T12:28:58.801Z,11.89
2023-04-17T12:30:00.740Z,11.96
2023-04-17T12:31:03.975Z,12.03
2023-04-17T12:32:06.509Z,12.13
2023-04-17T12:33:09.972Z,12.21
2023-04-17T12:34:12.123Z,12.27
2023-04-17T12:35:15.268Z,12.35
2023-04-17T12:36:18.152Z,12.38
2023-04-17T12:37:21.421Z,12.44
2023-04-17T12:38:24.311Z,12.45
2023-04-17T12:39:26.177Z,12.47
2023-04-17T12:40:29.013Z,12.48
2023-04-17T12:41:31.895Z,12.49
2023-04-17T12:42:42.748Z,12.48
2023-04-17T12:43:51.765Z,12.46
2023-04-17T12:44:53.558Z,12.46
2023-04-17T12:45:58.786Z,12.48
2023-04-17T12:47:00.847Z,12.50
2023-04-17T12:48:03.684Z,12.51
2023-04-17T12:49:05.562Z,12.55
2023-04-17T12:50:09.357Z,12.59
2023-04-17T12:51:12.240Z,12.62
2023-04-17T12:52:14.238Z,12.63
2023-04-17T12:53:18.338Z,12.67
2023-04-17T12:54:20.310Z,12.68
2023-04-17T12:55:23.346Z,12.65
2023-04-17T12:56:26.225Z,12.62
2023-04-17T12:57:28.314Z,12.62
2023-04-17T12:58:31.188Z,12.61
2023-04-17T12:59:32.985Z,12.58
2023-04-17T13:00:36.236Z,12.57
2023-04-17T13:01:38.294Z,12.57
2023-04-17T13:02:41.602Z,12.58
2023-04-17T13:03:44.658Z,12.55
2023-04-17T13:04:47.344Z,12.47
2023-04-17T13:05:52.756Z,12.42
2023-04-17T13:06:54.637Z,12.40
2023-04-17T13:07:57.725Z,12.41
2023-04-17T13:09:00.964Z,12.44
2023-04-17T13:10:03.870Z,12.48
2023-04-17T13:11:05.733Z,12.52
2023-04-17T13:12:08.721Z,12.58
2023-04-17T13:13:10.879Z,12.57
2023-04-17T13:14:15.203Z,12.54
2023-04-17T13:15:18.417Z,12.49
2023-04-17T13:16:20.277Z,12.44
2023-04-17T13:17:23.196Z,12.42
2023-04-17T13:18:26.338Z,12.40
2023-04-17T13:19:28.116Z,12.38
2023-04-17T13:20:31.356Z,12.35
2023-04-17T13:21:33.194Z,12.36
2023-04-17T13:22:36.142Z,12.37
2023-04-17T13:23:39.100Z,12.42
2023-04-17T13:24:42.342Z,12.44
2023-04-17T13:25:45.130Z,12.45
2023-04-17T13:26:50.589Z,12.45
2023-04-17T13:27:55.160Z,12.39
2023-04-17T13:28:57.241Z,12.35
2023-04-17T13:30:00.332Z,12.29
2023-04-17T13:31:02.128Z,12.23
2023-04-17T13:32:05.261Z,12.17
2023-04-17T13:33:08.660Z,12.14
2023-04-17T13:34:10.894Z,12.15
2023-04-17T13:35:14.510Z,12.17
2023-04-17T13:36:16.415Z,12.20
2023-04-17T13:37:19.299Z,12.23
2023-04-17T13:38:21.278Z,12.26
2023-04-17T13:39:24.373Z,12.29
2023-04-17T13:40:30.774Z,12.32
2023-04-17T13:41:33.613Z,12.29
2023-04-17T13:42:36.542Z,12.28
2023-04-17T13:43:39.376Z,12.26
2023-04-17T13:44:43.390Z,12.27
2023-04-17T13:45:45.502Z,12.29
2023-04-17T13:46:48.401Z,12.33
2023-04-17T13:47:50.489Z,12.33
2023-04-17T13:48:53.519Z,12.33
2023-04-17T13:49:57.352Z,12.32
2023-04-17T13:51:00.201Z,12.33
2023-04-17T13:52:03.379Z,12.32
2023-04-17T13:53:05.377Z,12.34
2023-04-17T13:54:09.512Z,12.35
2023-04-17T13:55:14.627Z,12.36
2023-04-17T13:56:18.903Z,12.36
2023-04-17T13:57:21.673Z,12.35
2023-04-17T13:58:26.326Z,12.34